createdAt,value
2022-12-29T00:00:48.876Z,23.77
2022-12-29T00:01:48.783Z,23.79
2022-12-29T00:02:48.881Z,23.78
2022-12-29T00:03:48.884Z,23.79
2022-12-29T00:04:48.761Z,23.78
2022-12-29T00:05:48.769Z,23.79
2022-12-29T00:06:48.770Z,23.78
2022-12-29T00:07:48.778Z,23.77
2022-12-29T00:08:48.782Z,23.75
2022-12-29T00:09:48.775Z,23.75
2022-12-29T00:10:48.752Z,23.75
2022-12-29T00:11:48.804Z,23.77
2022-12-29T00:12:48.755Z,23.77
2022-12-29T00:13:48.759Z,23.77
2022-12-29T00:14:48.737Z,23.77
2022-12-29T00:15:48.770Z,23.75
2022-12-29T00:16:48.799Z,23.77
2022-12-29T00:17:48.735Z,23.77
2022-12-29T00:18:48.707Z,23.77
2022-12-29T00:19:48.731Z,23.77
2022-12-29T00:20:48.715Z,23.75
2022-12-29T00:21:48.718Z,23.78
2022-12-29T00:22:48.710Z,23.79
2022-12-29T00:23:48.707Z,23.79
2022-12-29T00:24:48.707Z,23.79
2022-12-29T00:25:48.768Z,23.81
2022-12-29T00:26:48.727Z,23.78
2022-12-29T00:27:48.726Z,23.79
2022-12-29T00:28:48.710Z,23.78
2022-12-29T00:29:48.690Z,23.78
2022-12-29T00:30:48.775Z,23.77
2022-12-29T00:31:48.745Z,23.78
2022-12-29T00:32:48.688Z,23.77
2022-12-29T00:33:48.709Z,23.79
2022-12-29T00:34:48.675Z,23.78
2022-12-29T00:35:48.666Z,23.81
2022-12-29T00:36:48.660Z,23.78
2022-12-29T00:37:48.658Z,23.77
2022-12-29T00:38:48.663Z,23.78
2022-12-29T00:39:48.666Z,23.77
2022-12-29T00:40:48.651Z,23.77
2022-12-29T00:41:48.655Z,23.79
2022-12-29T00:42:48.657Z,23.79
2022-12-29T00:43:48.645Z,23.77
2022-12-29T00:44:48.643Z,23.79
2022-12-29T00:45:48.659Z,23.75
2022-12-29T00:46:48.664Z,23.75
2022-12-29T00:47:48.681Z,23.77
2022-12-29T00:48:48.662Z,23.77
2022-12-29T00:49:48.660Z,23.77
2022-12-29T00:50:48.668Z,23.75
2022-12-29T00:51:48.685Z,23.77
2022-12-29T00:52:48.681Z,23.77
2022-12-29T00:53:48.654Z,23.75
2022-12-29T00:54:48.650Z,23.75
2022-12-29T00:55:48.719Z,23.75
2022-12-29T00:56:48.650Z,23.74
2022-12-29T00:57:48.645Z,23.74
2022-12-29T00:58:48.635Z,23.72
2022-12-29T00:59:48.636Z,23.69
2022-12-29T01:00:48.657Z,23.74
2022-12-29T01:01:48.788Z,23.75
2022-12-29T01:02:48.722Z,23.71
2022-12-29T01:03:48.599Z,23.71
2022-12-29T01:04:48.572Z,23.74
2022-12-29T01:05:48.645Z,23.75
2022-12-29T01:06:48.569Z,23.75
2022-12-29T01:07:48.582Z,23.75
2022-12-29T01:08:48.569Z,23.77
2022-12-29T01:09:48.538Z,23.78
2022-12-29T01:10:48.521Z,23.77
2022-12-29T01:11:48.528Z,23.78
2022-12-29T01:12:48.571Z,23.77
2022-12-29T01:13:48.514Z,23.75
2022-12-29T01:14:48.519Z,23.78
2022-12-29T01:15:48.526Z,23.78
2022-12-29T01:16:48.466Z,23.75
2022-12-29T01:17:48.465Z,23.77
2022-12-29T01:18:48.477Z,23.75
2022-12-29T01:19:48.443Z,23.75
2022-12-29T01:20:48.444Z,23.74
2022-12-29T01:21:48.430Z,23.77
2022-12-29T01:22:48.437Z,23.74
2022-12-29T01:23:48.433Z,23.75
2022-12-29T01:24:48.403Z,23.75
2022-12-29T01:25:48.405Z,23.75
2022-12-29T01:26:48.389Z,23.77
2022-12-29T01:27:48.382Z,23.72
2022-12-29T01:28:48.386Z,23.74
2022-12-29T01:29:48.373Z,23.74
2022-12-29T01:30:48.359Z,23.78
2022-12-29T01:31:48.435Z,23.72
2022-12-29T01:32:48.360Z,23.75
2022-12-29T01:33:48.351Z,23.74
2022-12-29T01:34:48.347Z,23.75
2022-12-29T01:35:48.335Z,23.74
2022-12-29T01:36:48.324Z,23.77
2022-12-29T01:37:48.363Z,23.74
2022-12-29T01:38:48.321Z,23.74
2022-12-29T01:39:48.305Z,23.74
2022-12-29T01:40:48.316Z,23.74
2022-12-29T01:41:48.321Z,23.74
2022-12-29T01:42:48.285Z,23.74
2022-12-29T01:43:48.282Z,23.75
2022-12-29T01:44:48.274Z,23.72
2022-12-29T01:45:48.306Z,23.74
2022-12-29T01:46:48.254Z,23.74
2022-12-29T01:47:48.259Z,23.69
2022-12-29T01:48:48.232Z,23.69
2022-12-29T01:49:48.224Z,23.72
2022-12-29T01:50:48.231Z,23.72
2022-12-29T01:51:48.219Z,23.71
2022-12-29T01:52:48.201Z,23.72
2022-12-29T01:53:48.197Z,23.71
2022-12-29T01:54:48.208Z,23.72
2022-12-29T01:55:48.197Z,23.74
2022-12-29T01:56:48.183Z,23.72
2022-12-29T01:57:48.192Z,23.74
2022-12-29T01:58:48.193Z,23.72
2022-12-29T01:59:48.166Z,23.74
2022-12-29T02:00:48.237Z,23.72
2022-12-29T02:01:48.403Z,23.75
2022-12-29T02:02:48.205Z,23.72
2022-12-29T02:03:48.148Z,23.74
2022-12-29T02:04:48.150Z,23.72
2022-12-29T02:05:48.153Z,23.74
2022-12-29T02:06:48.145Z,23.74
2022-12-29T02:07:48.132Z,23.75
2022-12-29T02:08:48.161Z,23.74
2022-12-29T02:09:48.122Z,23.74
2022-12-29T02:10:48.147Z,23.72
2022-12-29T02:11:48.108Z,23.72
2022-12-29T02:12:48.112Z,23.74
2022-12-29T02:13:48.113Z,23.74
2022-12-29T02:14:48.097Z,23.74
2022-12-29T02:15:48.102Z,23.77
2022-12-29T02:16:48.137Z,23.72
2022-12-29T02:17:48.086Z,23.77
2022-12-29T02:18:48.085Z,23.72
2022-12-29T02:19:48.088Z,23.77
2022-12-29T02:20:48.084Z,23.75
2022-12-29T02:21:48.077Z,23.75
2022-12-29T02:22:48.074Z,23.72
2022-12-29T02:23:48.071Z,23.74
2022-12-29T02:24:48.066Z,23.74
2022-12-29T02:25:48.068Z,23.72
2022-12-29T02:26:48.047Z,23.72
2022-12-29T02:27:48.043Z,23.74
2022-12-29T02:28:48.027Z,23.72
2022-12-29T02:29:48.039Z,23.72
2022-12-29T02:30:48.032Z,23.72
2022-12-29T02:31:48.068Z,23.71
2022-12-29T02:32:48.022Z,23.72
2022-12-29T02:33:48.043Z,23.72
2022-12-29T02:34:48.046Z,23.72
2022-12-29T02:35:48.060Z,23.71
2022-12-29T02:36:48.024Z,23.74
2022-12-29T02:37:47.999Z,23.74
2022-12-29T09:57:47.898Z,25.40
2022-12-29T09:58:47.883Z,25.43
2022-12-29T09:59:47.893Z,25.46
2022-12-29T10:00:54.551Z,25.48
2022-12-29T10:01:49.106Z,25.48
2022-12-29T10:02:48.130Z,25.48
2022-12-29T10:03:47.869Z,25.50
2022-12-29T10:04:48.636Z,25.54
2022-12-29T10:05:47.846Z,25.51
2022-12-29T10:07:19.880Z,25.53
2022-12-29T10:07:48.834Z,25.56
2022-12-29T10:08:47.816Z,25.57
2022-12-29T10:09:47.806Z,25.56
2022-12-29T10:10:47.815Z,25.58
2022-12-29T10:11:47.781Z,25.57
2022-12-29T10:12:47.780Z,25.60
2022-12-29T10:13:47.747Z,25.60
2022-12-29T10:14:47.750Z,25.60
2022-12-29T10:15:47.756Z,25.63
2022-12-29T10:16:47.800Z,25.60
2022-12-29T10:17:47.738Z,25.60
2022-12-29T10:18:47.692Z,25.58
2022-12-29T10:19:47.685Z,25.58
2022-12-29T10:20:47.697Z,25.58
2022-12-29T10:21:47.672Z,25.61
2022-12-29T10:22:47.666Z,25.60
2022-12-29T10:23:47.659Z,25.63
2022-12-29T10:24:47.656Z,25.67
2022-12-29T10:25:47.625Z,25.67
2022-12-29T10:26:47.617Z,25.71
2022-12-29T10:27:47.599Z,25.74
2022-12-29T10:28:47.602Z,25.78
2022-12-29T10:29:47.572Z,25.81
2022-12-29T10:30:47.577Z,25.85
2022-12-29T10:31:47.601Z,25.88
2022-12-29T10:32:47.567Z,25.93
2022-12-29T10:33:47.533Z,25.98
2022-12-29T10:34:47.538Z,26.05
2022-12-29T10:35:47.520Z,26.09
2022-12-29T10:36:47.518Z,26.15
2022-12-29T10:37:47.533Z,26.19
2022-12-29T10:38:47.495Z,26.23
2022-12-29T10:39:47.482Z,26.27
2022-12-29T10:40:47.494Z,26.30
2022-12-29T10:41:47.456Z,26.35
2022-12-29T10:42:47.607Z,26.37
2022-12-29T10:43:47.461Z,26.43
2022-12-29T10:44:47.432Z,26.50
2022-12-29T10:45:47.453Z,26.53
2022-12-29T10:46:47.420Z,26.57
2022-12-29T10:47:47.435Z,26.67
2022-12-29T10:48:47.401Z,26.73
2022-12-29T10:49:47.403Z,26.77
2022-12-29T10:50:47.373Z,26.84
2022-12-29T10:51:47.342Z,26.88
2022-12-29T10:52:47.340Z,26.95
2022-12-29T10:53:47.321Z,26.99
2022-12-29T10:54:47.300Z,27.06
2022-12-29T10:55:47.296Z,27.15
2022-12-29T10:56:47.278Z,27.19
2022-12-29T10:57:47.288Z,27.23
2022-12-29T10:58:49.717Z,27.26
2022-12-29T10:59:47.248Z,27.28
2022-12-29T11:00:47.281Z,27.26
2022-12-29T11:01:47.355Z,27.26
2022-12-29T11:02:47.353Z,27.19
2022-12-29T11:03:47.158Z,27.19
2022-12-29T11:04:47.155Z,27.15
2022-12-29T11:05:47.126Z,27.15
2022-12-29T11:06:47.123Z,27.17
2022-12-29T11:07:47.097Z,27.19
2022-12-29T11:08:47.086Z,27.17
2022-12-29T11:09:47.062Z,27.23
2022-12-29T11:10:47.017Z,27.30
2022-12-29T11:11:46.997Z,27.36
2022-12-29T11:12:46.996Z,27.42
2022-12-29T11:13:46.967Z,27.51
2022-12-29T11:14:46.940Z,27.54
2022-12-29T11:15:46.929Z,27.60
2022-12-29T11:16:46.916Z,27.65
2022-12-29T11:17:46.873Z,27.65
2022-12-29T11:18:46.847Z,27.67
2022-12-29T11:19:46.835Z,27.70
2022-12-29T11:20:46.803Z,27.71
2022-12-29T11:21:46.781Z,27.70
2022-12-29T11:22:46.796Z,27.61
2022-12-29T11:23:46.735Z,27.57
2022-12-29T11:24:46.713Z,27.50
2022-12-29T11:25:46.679Z,27.42
2022-12-29T11:26:46.655Z,27.33
2022-12-29T11:27:46.679Z,27.23
2022-12-29T11:28:46.643Z,27.12
2022-12-29T11:29:46.596Z,27.09
2022-12-29T11:30:46.581Z,27.02
2022-12-29T11:31:46.655Z,26.94
2022-12-29T11:32:46.519Z,26.88
2022-12-29T11:33:46.513Z,26.84
2022-12-29T11:34:46.515Z,26.81
2022-12-29T11:35:46.480Z,26.82
2022-12-29T11:36:46.463Z,26.87
2022-12-29T11:37:46.449Z,26.89
2022-12-29T11:38:46.422Z,27.02
2022-12-29T11:39:46.407Z,27.09
2022-12-29T11:40:46.385Z,27.21
2022-12-29T11:41:46.361Z,27.30
2022-12-29T11:42:46.339Z,27.33
2022-12-29T11:43:46.338Z,27.43
2022-12-29T11:44:46.308Z,27.50
2022-12-29T11:45:46.328Z,27.54
2022-12-29T11:46:46.265Z,27.56
2022-12-29T11:47:46.231Z,27.53
2022-12-29T11:48:46.206Z,27.49
2022-12-29T11:49:46.207Z,27.42
2022-12-29T11:50:46.173Z,27.43
2022-12-29T11:51:46.181Z,27.37
2022-12-29T11:52:46.139Z,27.28
2022-12-29T11:53:46.163Z,27.25
2022-12-29T11:54:46.107Z,27.21
2022-12-29T11:55:46.075Z,27.21
2022-12-29T11:56:46.070Z,27.39
2022-12-29T11:57:46.054Z,27.40
2022-12-29T11:58:46.043Z,27.39
2022-12-29T11:59:46.014Z,27.28
2022-12-29T12:00:46.007Z,27.22
2022-12-29T12:01:46.010Z,27.09
2022-12-29T12:02:45.998Z,27.06
2022-12-29T12:03:46.047Z,27.02
2022-12-29T12:04:45.936Z,26.95
2022-12-29T12:05:45.945Z,26.94
2022-12-29T12:06:45.966Z,26.89
2022-12-29T12:07:46.680Z,26.84
2022-12-29T12:08:45.890Z,26.78
2022-12-29T12:09:45.882Z,26.71
2022-12-29T12:10:45.867Z,26.70
2022-12-29T12:11:45.845Z,26.63
2022-12-29T12:12:45.835Z,26.61
2022-12-29T12:13:45.833Z,26.57
2022-12-29T12:14:45.816Z,26.55
2022-12-29T12:15:49.138Z,26.50
2022-12-29T12:16:45.822Z,26.43
2022-12-29T12:17:45.790Z,26.39
2022-12-29T12:18:45.784Z,26.30
2022-12-29T12:19:45.780Z,26.32
2022-12-29T12:20:45.768Z,26.30
2022-12-29T12:21:46.254Z,26.25
2022-12-29T12:22:45.752Z,26.27
2022-12-29T12:23:45.768Z,26.37
2022-12-29T12:24:45.753Z,26.54
2022-12-29T12:25:45.734Z,26.60
2022-12-29T12:26:45.726Z,26.63
2022-12-29T12:27:45.725Z,26.98
2022-12-29T12:28:45.708Z,27.22
2022-12-29T12:29:45.694Z,27.10
2022-12-29T12:30:45.744Z,27.05
2022-12-29T12:31:45.665Z,27.08
2022-12-29T12:32:45.647Z,27.19
2022-12-29T12:33:45.629Z,27.30
2022-12-29T12:34:45.625Z,27.30
2022-12-29T12:35:45.633Z,27.32
2022-12-29T12:36:45.584Z,27.30
2022-12-29T12:37:45.574Z,27.16
2022-12-29T12:38:45.559Z,27.06
2022-12-29T12:39:45.540Z,26.97
2022-12-29T12:40:45.570Z,26.97
2022-12-29T12:41:45.510Z,26.92
2022-12-29T12:42:45.539Z,26.80
2022-12-29T12:43:45.499Z,26.74
2022-12-29T12:44:45.473Z,26.71
2022-12-29T12:45:45.473Z,26.78
2022-12-29T12:46:45.553Z,26.99
2022-12-29T12:47:45.445Z,27.22
2022-12-29T12:48:45.457Z,27.50
2022-12-29T12:49:45.440Z,27.70
2022-12-29T12:50:45.471Z,27.65
2022-12-29T12:51:45.404Z,28.01
2022-12-29T12:52:45.391Z,28.43
2022-12-29T12:53:45.363Z,28.73
2022-12-29T12:54:45.342Z,28.98
2022-12-29T12:55:45.328Z,29.12
2022-12-29T12:56:45.315Z,29.32
2022-12-29T12:57:45.310Z,29.68
2022-12-29T12:58:45.257Z,29.98
2022-12-29T12:59:45.239Z,30.32
2022-12-29T13:00:45.204Z,30.56
2022-12-29T13:01:45.297Z,30.66
2022-12-29T13:02:45.401Z,30.48
2022-12-29T13:03:45.161Z,30.56
2022-12-29T13:04:45.122Z,30.63
2022-12-29T13:05:45.086Z,30.82
2022-12-29T13:06:45.058Z,31.02
2022-12-29T13:07:45.037Z,31.22
2022-12-29T13:08:45.006Z,31.54
2022-12-29T13:09:44.984Z,31.77
2022-12-29T13:10:48.478Z,31.87
2022-12-29T13:11:44.925Z,31.99
2022-12-29T13:12:44.891Z,32.15
2022-12-29T13:13:44.951Z,32.33
2022-12-29T13:14:44.904Z,32.55
2022-12-29T13:15:44.796Z,32.57
2022-12-29T13:16:44.775Z,32.39
2022-12-29T13:17:44.730Z,32.22
2022-12-29T13:18:44.696Z,32.11
2022-12-29T13:19:44.682Z,32.22
2022-12-29T13:20:44.636Z,32.33
2022-12-29T13:21:48.313Z,32.46
2022-12-29T13:22:45.570Z,32.57
2022-12-29T13:23:44.531Z,32.31
2022-12-29T13:24:44.507Z,32.33
2022-12-29T13:25:44.470Z,31.71
2022-12-29T13:26:44.440Z,30.88
2022-12-29T13:27:44.418Z,30.29
2022-12-29T13:28:44.420Z,29.77
2022-12-29T13:29:44.400Z,29.34
2022-12-29T13:30:44.376Z,28.98
2022-12-29T13:31:44.415Z,28.66
2022-12-29T13:32:44.340Z,28.36
2022-12-29T13:33:44.316Z,28.11
2022-12-29T13:34:44.313Z,27.88
2022-12-29T13:35:44.316Z,27.65
2022-12-29T13:36:44.361Z,27.49
2022-12-29T13:37:44.271Z,27.36
2022-12-29T13:38:44.275Z,27.17
2022-12-29T13:39:45.141Z,27.08
2022-12-29T13:40:44.252Z,26.97
2022-12-29T13:41:44.255Z,26.88
2022-12-29T13:42:44.232Z,26.78
2022-12-29T13:43:44.244Z,26.70
2022-12-29T13:44:44.246Z,26.61
2022-12-29T13:45:44.225Z,26.50
2022-12-29T13:46:44.284Z,26.46
2022-12-29T13:47:44.237Z,26.39
2022-12-29T13:48:44.213Z,26.32
2022-12-29T13:49:44.202Z,26.26
2022-12-29T13:50:44.241Z,26.19
2022-12-29T13:51:44.199Z,26.16
2022-12-29T13:52:44.193Z,26.10
2022-12-29T13:53:44.194Z,26.05
2022-12-29T13:54:44.195Z,26.02
2022-12-29T13:55:44.195Z,25.96
2022-12-29T13:56:44.193Z,25.93
2022-12-29T13:57:44.184Z,25.89
2022-12-29T13:58:44.217Z,25.87
2022-12-29T13:59:44.174Z,25.85
2022-12-29T14:00:44.179Z,25.81
2022-12-29T14:01:44.366Z,25.80
2022-12-29T14:02:44.371Z,25.78
2022-12-29T14:03:44.382Z,25.75
2022-12-29T14:04:44.143Z,25.73
2022-12-29T14:05:44.146Z,25.70
2022-12-29T14:06:44.146Z,25.64
2022-12-29T14:07:44.147Z,25.63
2022-12-29T14:08:44.491Z,25.63
2022-12-29T14:09:44.127Z,25.57
2022-12-29T14:10:44.149Z,25.56
2022-12-29T14:11:44.145Z,25.53
2022-12-29T14:12:44.128Z,25.50
2022-12-29T14:13:44.112Z,25.48
2022-12-29T14:14:44.126Z,25.48
2022-12-29T14:15:44.150Z,25.43
2022-12-29T14:16:44.189Z,25.41
2022-12-29T14:17:44.107Z,25.40
2022-12-29T14:18:44.154Z,25.34
2022-12-29T14:19:44.102Z,25.34
2022-12-29T14:20:44.093Z,25.32
2022-12-29T14:21:44.089Z,25.26
2022-12-29T14:22:44.083Z,25.26
2022-12-29T14:23:44.077Z,25.22
2022-12-29T14:24:44.086Z,25.20
2022-12-29T14:25:44.112Z,25.19
2022-12-29T14:26:44.082Z,25.16
2022-12-29T14:27:44.067Z,25.16
2022-12-29T14:28:44.096Z,25.15
2022-12-29T14:29:44.060Z,25.12
2022-12-29T14:30:44.064Z,25.08
2022-12-29T14:31:44.129Z,25.08
2022-12-29T14:32:44.052Z,25.02
2022-12-29T14:33:44.055Z,25.02
2022-12-29T14:34:48.803Z,25.03
2022-12-29T14:35:45.024Z,24.99
2022-12-29T14:36:44.030Z,24.99
2022-12-29T14:37:44.010Z,24.98
2022-12-29T14:38:44.047Z,24.95
2022-12-29T14:39:44.047Z,24.92
2022-12-29T14:40:43.998Z,24.88
2022-12-29T14:41:43.990Z,24.89
2022-12-29T14:42:43.983Z,24.88
2022-12-29T14:43:44.000Z,24.86
2022-12-29T14:44:43.981Z,24.85
2022-12-29T14:45:43.981Z,24.85
2022-12-29T14:46:44.550Z,24.81
2022-12-29T14:47:43.984Z,24.84
2022-12-29T14:48:43.964Z,24.82
2022-12-29T14:49:43.967Z,24.79
2022-12-29T14:50:43.965Z,24.81
2022-12-29T14:51:43.956Z,24.79
2022-12-29T14:52:43.959Z,24.79
2022-12-29T14:53:43.939Z,24.77
2022-12-29T14:54:43.952Z,24.75
2022-12-29T14:55:43.948Z,24.75
2022-12-29T14:56:43.944Z,24.75
2022-12-29T14:57:43.932Z,24.74
2022-12-29T14:58:43.930Z,24.71
2022-12-29T14:59:43.938Z,24.68
2022-12-29T15:00:43.960Z,24.67
2022-12-29T15:01:44.185Z,24.67
2022-12-29T15:02:44.045Z,24.67
2022-12-29T15:03:43.911Z,24.65
2022-12-29T15:04:43.906Z,24.63
2022-12-29T15:05:43.910Z,24.63
2022-12-29T15:06:43.920Z,24.60
2022-12-29T15:07:43.886Z,24.60
2022-12-29T15:08:43.886Z,24.60
2022-12-29T15:09:43.899Z,24.61
2022-12-29T15:10:43.889Z,24.58
2022-12-29T15:11:43.887Z,24.58
2022-12-29T15:12:43.902Z,24.57
2022-12-29T15:13:43.888Z,24.57
2022-12-29T15:14:43.898Z,24.57
2022-12-29T15:15:43.878Z,24.56
2022-12-29T15:16:43.939Z,24.53
2022-12-29T15:17:43.885Z,24.53
2022-12-29T15:18:43.890Z,24.53
2022-12-29T15:19:43.879Z,24.51
2022-12-29T15:20:43.878Z,24.51
2022-12-29T15:21:43.876Z,24.51
2022-12-29T15:22:43.879Z,24.51
2022-12-29T15:23:43.883Z,24.50
2022-12-29T15:24:43.896Z,24.50
2022-12-29T15:25:43.878Z,24.48
2022-12-29T15:26:43.900Z,24.51
2022-12-29T15:27:43.883Z,24.50
2022-12-29T15:28:43.889Z,24.48
2022-12-29T15:29:43.886Z,24.51
2022-12-29T15:30:43.888Z,24.51
2022-12-29T15:31:43.933Z,24.50
2022-12-29T15:32:43.899Z,24.53
2022-12-29T15:33:44.018Z,24.51
2022-12-29T15:34:43.893Z,24.54
2022-12-29T15:35:43.895Z,24.53
2022-12-29T15:36:43.901Z,24.53
2022-12-29T15:37:43.899Z,24.51
2022-12-29T15:38:43.914Z,24.51
2022-12-29T15:39:43.917Z,24.51
2022-12-29T15:40:43.931Z,24.47
2022-12-29T15:41:43.912Z,24.51
2022-12-29T15:42:43.938Z,24.50
2022-12-29T15:43:47.235Z,24.50
2022-12-29T15:44:43.965Z,24.50
2022-12-29T15:45:43.981Z,24.47
2022-12-29T15:46:43.925Z,24.48
2022-12-29T15:47:43.933Z,24.47
2022-12-29T15:48:43.923Z,24.48
2022-12-29T15:49:43.924Z,24.46
2022-12-29T15:50:43.970Z,24.46
2022-12-29T15:51:43.933Z,24.47
2022-12-29T15:52:43.939Z,24.46
2022-12-29T15:53:43.940Z,24.46
2022-12-29T15:54:43.940Z,24.44
2022-12-29T15:55:43.960Z,24.46
2022-12-29T15:56:43.963Z,24.44
2022-12-29T15:57:43.981Z,24.44
2022-12-29T15:58:43.969Z,24.43
2022-12-29T15:59:43.960Z,24.46
2022-12-29T16:00:43.978Z,24.43
2022-12-29T16:01:44.159Z,24.41
2022-12-29T16:02:44.136Z,24.40
2022-12-29T16:03:44.096Z,24.40
2022-12-29T16:05:09.227Z,24.43
2022-12-29T16:05:44.998Z,24.40
2022-12-29T16:06:43.999Z,24.40
2022-12-29T16:07:44.011Z,24.41
2022-12-29T16:08:44.062Z,24.40
2022-12-29T16:09:44.098Z,24.40
2022-12-29T16:10:44.055Z,24.40
2022-12-29T16:11:44.055Z,24.39
2022-12-29T16:12:44.038Z,24.39
2022-12-29T16:13:44.056Z,24.37
2022-12-29T16:14:44.041Z,24.36
2022-12-29T16:15:44.072Z,24.37
2022-12-29T16:16:44.084Z,24.37
2022-12-29T16:17:44.051Z,24.36
2022-12-29T16:18:44.064Z,24.36
2022-12-29T16:19:44.077Z,24.34
2022-12-29T16:20:44.089Z,24.37
2022-12-29T16:21:44.073Z,24.31
2022-12-29T16:22:44.085Z,24.33
2022-12-29T16:23:44.116Z,24.31
2022-12-29T16:24:44.113Z,24.27
2022-12-29T16:25:44.115Z,24.31
2022-12-29T16:26:44.119Z,24.31
2022-12-29T16:27:44.131Z,24.29
2022-12-29T16:28:44.143Z,24.29
2022-12-29T16:29:44.137Z,24.27
2022-12-29T16:30:44.154Z,24.27
2022-12-29T16:31:44.155Z,24.27
2022-12-29T16:32:44.160Z,24.27
2022-12-29T16:33:44.164Z,24.24
2022-12-29T16:34:44.161Z,24.26
2022-12-29T16:35:44.165Z,24.24
2022-12-29T16:36:44.177Z,24.22
2022-12-29T16:37:44.180Z,24.23
2022-12-29T16:38:44.186Z,24.20
2022-12-29T16:39:44.189Z,24.23
2022-12-29T16:40:44.196Z,24.23
2022-12-29T16:41:44.235Z,24.23
2022-12-29T16:42:50.614Z,24.22
2022-12-29T16:43:45.213Z,24.19
2022-12-29T16:44:44.213Z,24.24
2022-12-29T16:45:44.238Z,24.23
2022-12-29T16:46:44.726Z,24.23
2022-12-29T16:47:44.217Z,24.26
2022-12-29T16:48:44.231Z,24.23
2022-12-29T16:49:44.221Z,24.20
2022-12-29T16:50:44.252Z,24.22
2022-12-29T16:51:44.253Z,24.23
2022-12-29T16:52:44.240Z,24.23
2022-12-29T16:53:44.269Z,24.19
2022-12-29T16:54:44.270Z,24.20
2022-12-29T16:55:44.291Z,24.19
2022-12-29T16:56:44.272Z,24.20
2022-12-29T16:57:44.276Z,24.17
2022-12-29T16:58:48.807Z,24.19
2022-12-29T16:59:44.296Z,24.19
2022-12-29T17:00:44.278Z,24.19
2022-12-29T17:01:44.477Z,24.16
2022-12-29T17:02:44.490Z,24.17
2022-12-29T17:03:44.343Z,24.17
2022-12-29T17:04:44.316Z,24.19
2022-12-29T17:05:44.328Z,24.17
2022-12-29T17:06:44.291Z,24.16
2022-12-29T17:07:44.294Z,24.17
2022-12-29T17:08:44.364Z,24.16
2022-12-29T17:09:44.309Z,24.17
2022-12-29T17:10:44.311Z,24.15
2022-12-29T17:11:44.309Z,24.16
2022-12-29T17:12:44.302Z,24.16
2022-12-29T17:13:44.310Z,24.13
2022-12-29T17:14:44.320Z,24.15
2022-12-29T17:15:44.420Z,24.15
2022-12-29T17:16:44.336Z,24.13
2022-12-29T17:17:44.319Z,24.15
2022-12-29T17:18:44.342Z,24.11
2022-12-29T17:19:44.345Z,24.12
2022-12-29T17:20:44.326Z,24.13
2022-12-29T17:21:44.348Z,24.13
2022-12-29T17:22:44.343Z,24.12
2022-12-29T17:23:44.354Z,24.16
2022-12-29T17:24:44.364Z,24.12
2022-12-29T17:25:44.358Z,24.12
2022-12-29T17:26:44.358Z,24.11
2022-12-29T17:27:44.364Z,24.11
2022-12-29T17:28:44.382Z,24.11
2022-12-29T17:29:44.374Z,24.11
2022-12-29T17:30:44.427Z,24.09
2022-12-29T17:31:44.399Z,24.08
2022-12-29T17:32:44.399Z,24.09
2022-12-29T17:33:44.378Z,24.09
2022-12-29T17:34:44.377Z,24.11
2022-12-29T17:35:44.384Z,24.09
2022-12-29T17:36:44.382Z,24.08
2022-12-29T17:37:44.420Z,24.11
2022-12-29T17:38:45.317Z,24.11
2022-12-29T17:39:44.416Z,24.11
2022-12-29T17:40:44.419Z,24.12
2022-12-29T17:41:44.420Z,24.12
2022-12-29T17:42:44.421Z,24.11
2022-12-29T17:43:44.417Z,24.12
2022-12-29T17:44:44.440Z,24.12
2022-12-29T17:45:44.425Z,24.12
2022-12-29T17:46:44.503Z,24.12
2022-12-29T17:47:44.435Z,24.11
2022-12-29T17:48:49.643Z,24.11
2022-12-29T17:49:44.447Z,24.09
2022-12-29T17:50:44.421Z,24.12
2022-12-29T17:51:44.426Z,24.09
2022-12-29T17:52:44.422Z,24.09
2022-12-29T17:53:44.486Z,24.12
2022-12-29T17:54:44.447Z,24.11
2022-12-29T17:55:44.412Z,24.09
2022-12-29T17:56:44.427Z,24.09
2022-12-29T17:57:44.457Z,24.09
2022-12-29T17:58:44.410Z,24.09
2022-12-29T17:59:44.417Z,24.09
2022-12-29T18:00:44.424Z,24.08
2022-12-29T18:01:45.781Z,24.06
2022-12-29T18:02:44.601Z,24.08
2022-12-29T18:03:44.565Z,24.05
2022-12-29T18:04:44.413Z,24.06
2022-12-29T18:05:44.419Z,24.06
2022-12-29T18:06:44.422Z,24.06
2022-12-29T18:07:44.423Z,24.06
2022-12-29T18:08:44.429Z,24.06
2022-12-29T18:09:44.434Z,24.09
2022-12-29T18:10:44.439Z,24.06
2022-12-29T18:11:44.418Z,24.06
2022-12-29T18:12:44.399Z,24.06
2022-12-29T18:13:46.859Z,24.06
2022-12-29T18:14:44.401Z,24.06
2022-12-29T18:15:44.424Z,24.06
2022-12-29T18:16:44.402Z,24.08
2022-12-29T18:17:44.454Z,24.06
2022-12-29T18:18:44.416Z,24.05
2022-12-29T18:19:44.408Z,24.08
2022-12-29T18:20:44.398Z,24.03
2022-12-29T18:21:44.399Z,24.03
2022-12-29T18:22:44.412Z,24.03
2022-12-29T18:23:44.413Z,24.02
2022-12-29T18:24:44.426Z,24.05
2022-12-29T18:25:44.391Z,24.05
2022-12-29T18:26:44.414Z,24.05
2022-12-29T18:27:44.401Z,24.05
2022-12-29T18:28:44.394Z,24.03
2022-12-29T18:29:44.418Z,24.03
2022-12-29T18:30:44.409Z,24.05
2022-12-29T18:31:44.462Z,24.03
2022-12-29T18:32:44.400Z,24.03
2022-12-29T18:33:44.385Z,24.03
2022-12-29T18:34:44.440Z,24.03
2022-12-29T18:35:44.391Z,24.03
2022-12-29T18:36:44.408Z,24.02
2022-12-29T18:37:44.377Z,24.02
2022-12-29T18:38:44.383Z,24.03
2022-12-29T18:39:44.391Z,24.02
2022-12-29T18:40:44.366Z,24.03
2022-12-29T18:41:44.381Z,24.03
2022-12-29T18:42:44.367Z,24.05
2022-12-29T18:43:44.358Z,24.03
2022-12-29T18:44:44.352Z,24.01
2022-12-29T18:45:44.362Z,24.06
2022-12-29T18:46:45.427Z,24.06
2022-12-29T18:47:44.338Z,24.03
2022-12-29T18:48:44.381Z,24.01
2022-12-29T18:49:44.401Z,24.02
2022-12-29T18:50:44.354Z,24.01
2022-12-29T18:51:44.351Z,24.01
2022-12-29T18:52:44.343Z,24.03
2022-12-29T18:53:44.352Z,24.01
2022-12-29T18:54:44.341Z,24.03
2022-12-29T18:55:44.356Z,24.05
2022-12-29T18:56:44.356Z,24.05
2022-12-29T18:57:44.353Z,24.05
2022-12-29T18:58:44.343Z,24.05
2022-12-29T18:59:44.376Z,24.05
2022-12-29T19:00:44.395Z,24.03
2022-12-29T19:01:44.502Z,24.03
2022-12-29T19:02:44.400Z,24.02
2022-12-29T19:03:44.376Z,24.03
2022-12-29T19:04:44.651Z,24.02
2022-12-29T19:05:44.370Z,24.01
2022-12-29T19:06:44.399Z,24.02
2022-12-29T19:07:44.354Z,24.03
2022-12-29T19:08:44.421Z,24.02
2022-12-29T19:09:44.369Z,24.01
2022-12-29T19:10:44.400Z,24.02
2022-12-29T19:11:44.384Z,24.05
2022-12-29T19:12:44.388Z,24.05
2022-12-29T19:13:44.363Z,24.02
2022-12-29T19:14:44.381Z,24.01
2022-12-29T19:15:44.415Z,24.02
2022-12-29T19:16:44.404Z,24.01
2022-12-29T19:17:44.410Z,24.01
2022-12-29T19:18:47.417Z,24.03
2022-12-29T19:19:44.401Z,24.03
2022-12-29T19:20:44.421Z,24.02
2022-12-29T19:21:44.409Z,24.01
2022-12-29T19:22:44.431Z,24.02
2022-12-29T19:23:44.419Z,24.03
2022-12-29T19:24:44.424Z,24.05
2022-12-29T19:25:44.532Z,24.02
2022-12-29T19:26:44.433Z,24.03
2022-12-29T19:27:44.441Z,24.02
2022-12-29T19:28:44.445Z,24.02
2022-12-29T19:29:44.455Z,24.03
2022-12-29T19:30:48.289Z,24.03
2022-12-29T19:31:45.650Z,24.05
2022-12-29T19:32:44.470Z,24.03
2022-12-29T19:33:44.492Z,24.03
2022-12-29T19:34:44.466Z,24.02
2022-12-29T19:35:44.473Z,24.02
2022-12-29T19:36:44.481Z,24.01
2022-12-29T19:37:44.472Z,24.01
2022-12-29T19:38:44.474Z,23.99
2022-12-29T19:39:44.485Z,24.05
2022-12-29T19:40:44.502Z,24.03
2022-12-29T19:41:44.486Z,24.02
2022-12-29T19:42:44.487Z,24.02
2022-12-29T19:43:44.498Z,23.99
2022-12-29T19:44:44.484Z,24.01
2022-12-29T19:45:44.496Z,24.03
2022-12-29T19:46:44.559Z,23.99
2022-12-29T19:47:44.497Z,23.99
2022-12-29T19:48:44.525Z,23.98
2022-12-29T19:49:44.498Z,23.96
2022-12-29T19:50:44.539Z,23.98
2022-12-29T19:51:44.524Z,23.96
2022-12-29T19:52:44.518Z,23.99
2022-12-29T19:53:44.513Z,24.01
2022-12-29T19:54:44.519Z,23.98
2022-12-29T19:55:45.389Z,23.96
2022-12-29T19:56:44.529Z,23.99
2022-12-29T19:57:44.525Z,23.98
2022-12-29T19:58:47.462Z,23.96
2022-12-29T19:59:44.515Z,23.99
2022-12-29T20:00:44.609Z,23.98
2022-12-29T20:01:44.720Z,23.98
2022-12-29T20:02:44.589Z,23.99
2022-12-29T20:03:44.518Z,23.98
2022-12-29T20:04:44.520Z,23.98
2022-12-29T20:05:44.549Z,23.98
2022-12-29T20:06:44.895Z,23.98
2022-12-29T20:07:44.541Z,23.99
2022-12-29T20:08:44.567Z,23.98
2022-12-29T20:09:44.555Z,23.96
2022-12-29T20:10:44.543Z,23.98
2022-12-29T20:11:44.557Z,23.96